Time;durP1;ratioP1;P1;durP2;ratioP2;P2;SDS_P1;SDS_P2;PMS_P1;PMS_P2;Temp;Humidity;BMP_temperature;BMP_pressure;BME280_temperature;BME280_humidity;BME280_pressure;Samples;Min_cycle;Max_cycle;Signal;HPM_P1;HPM_P2
2022/07/05 00:02:06;;;;;;;;;;;16.20;66.30;;;;;;5050124;28;19913;-78
2022/07/05 00:04:32;;;;;;;;;;;16.20;66.30;;;;;;5051580;28;19909;-77
2022/07/05 00:09:41;;;;;;;;;;;16.10;66.20;;;;;;5052550;28;20267;-77
2022/07/05 00:12:07;;;;;;;;;;;16.10;66.30;;;;;;5052297;28;19908;-78
2022/07/05 00:14:33;;;;;;;;;;;16.10;66.20;;;;;;5052158;28;20032;-77
2022/07/05 00:16:58;;;;;;;;;;;16.10;66.30;;;;;;5052761;28;20326;-76
2022/07/05 00:19:24;;;;;;;;;;;16.10;66.40;;;;;;5051082;28;19927;-78
2022/07/05 00:21:49;;;;;;;;;;;16.10;66.40;;;;;;5066541;28;19955;-77
2022/07/05 00:24:15;;;;;;;;;;;16.00;66.30;;;;;;5066867;28;19909;-76
2022/07/05 00:26:41;;;;;;;;;;;16.00;66.40;;;;;;5051290;28;19955;-78
2022/07/05 00:29:06;;;;;;;;;;;16.00;66.40;;;;;;5049485;28;19920;-79
2022/07/05 00:31:32;;;;;;;;;;;16.00;66.40;;;;;;5049915;28;20347;-77
2022/07/05 00:33:57;;;;;;;;;;;16.00;66.40;;;;;;5049229;28;19991;-78
2022/07/05 00:36:23;;;;;;;;;;;16.00;66.40;;;;;;5065959;28;20359;-78
2022/07/05 00:38:48;;;;;;;;;;;16.00;66.50;;;;;;5050543;28;19923;-79
2022/07/05 00:41:14;;;;;;;;;;;16.00;66.40;;;;;;5066352;28;19909;-78
2022/07/05 00:44:00;;;;;;;;;;;16.00;66.40;;;;;;5049445;28;19955;-78
2022/07/05 00:46:26;;;;;;;;;;;16.10;66.40;;;;;;5050365;28;19921;-77
2022/07/05 00:48:52;;;;;;;;;;;16.00;66.30;;;;;;5050255;28;20351;-77
2022/07/05 00:51:18;;;;;;;;;;;16.00;66.30;;;;;;5050993;28;20385;-77
2022/07/05 00:53:44;;;;;;;;;;;16.00;66.30;;;;;;5050277;28;19999;-79
2022/07/05 00:56:10;;;;;;;;;;;16.00;66.40;;;;;;5049351;28;20003;-77
2022/07/05 00:58:36;;;;;;;;;;;16.00;66.40;;;;;;5049111;28;19948;-77
2022/07/05 01:01:03;;;;;;;;;;;16.00;66.40;;;;;;5049919;28;20362;-77
2022/07/05 01:03:29;;;;;;;;;;;16.00;66.40;;;;;;5049201;28;20624;-79
2022/07/05 01:05:54;;;;;;;;;;;16.00;66.40;;;;;;5049372;28;19923;-77
2022/07/05 01:08:21;;;;;;;;;;;16.00;66.40;;;;;;5051153;28;19911;-77
2022/07/05 01:10:46;;;;;;;;;;;16.00;66.40;;;;;;5052297;28;19905;-79
2022/07/05 01:13:12;;;;;;;;;;;16.00;66.40;;;;;;5049753;28;19916;-78
2022/07/05 01:15:38;;;;;;;;;;;16.00;66.40;;;;;;5050689;28;19963;-76
2022/07/05 01:18:05;;;;;;;;;;;16.00;66.40;;;;;;5049386;28;19908;-78
2022/07/05 01:20:30;;;;;;;;;;;16.00;66.40;;;;;;5049620;28;19909;-79
2022/07/05 01:22:57;;;;;;;;;;;15.90;66.40;;;;;;5050857;28;19932;-78
2022/07/05 01:25:23;;;;;;;;;;;15.90;66.40;;;;;;5050884;28;19951;-77
2022/07/05 01:27:49;;;;;;;;;;;15.90;66.40;;;;;;5049652;28;19904;-77
2022/07/05 01:30:15;;;;;;;;;;;15.90;66.40;;;;;;5050571;28;19985;-78
2022/07/05 01:32:40;;;;;;;;;;;15.90;66.40;;;;;;5049718;28;19944;-78
2022/07/05 01:35:07;;;;;;;;;;;15.90;66.40;;;;;;5048923;28;20362;-77
2022/07/05 01:37:33;;;;;;;;;;;15.90;66.40;;;;;;5048731;28;19912;-77
2022/07/05 01:40:01;;;;;;;;;;;15.90;66.50;;;;;;5046837;28;19905;-78
2022/07/05 01:42:27;;;;;;;;;;;15.90;66.50;;;;;;5049167;28;20270;-77
2022/07/05 01:44:52;;;;;;;;;;;15.90;66.60;;;;;;5050919;28;19905;-77
2022/07/05 01:47:18;;;;;;;;;;;15.90;66.60;;;;;;5049716;28;19909;-76
2022/07/05 01:49:45;;;;;;;;;;;15.90;66.40;;;;;;5049809;28;20370;-78
2022/07/05 01:52:11;;;;;;;;;;;15.90;66.50;;;;;;5048710;28;19989;-78
2022/07/05 01:54:38;;;;;;;;;;;15.80;66.50;;;;;;5050660;28;20357;-78
2022/07/05 01:57:05;;;;;;;;;;;15.80;66.50;;;;;;5050152;28;19904;-79
2022/07/05 01:59:34;;;;;;;;;;;15.80;66.40;;;;;;5050953;28;19914;-78
2022/07/05 02:02:00;;;;;;;;;;;15.80;66.50;;;;;;5048404;28;19912;-79
2022/07/05 02:04:26;;;;;;;;;;;15.80;66.50;;;;;;5049733;28;20351;-77
2022/07/05 02:06:51;;;;;;;;;;;15.70;66.50;;;;;;5049673;28;20344;-78
2022/07/05 02:09:17;;;;;;;;;;;15.70;66.50;;;;;;5050005;28;19908;-77
2022/07/05 02:11:42;;;;;;;;;;;15.70;66.50;;;;;;5050502;28;20382;-78
2022/07/05 02:14:08;;;;;;;;;;;15.70;66.50;;;;;;5066568;28;19913;-77
2022/07/05 02:16:33;;;;;;;;;;;15.70;66.60;;;;;;5049935;28;20352;-77
2022/07/05 02:18:59;;;;;;;;;;;15.60;66.60;;;;;;5064815;28;19908;-78
2022/07/05 02:21:25;;;;;;;;;;;15.60;66.60;;;;;;5047702;28;19908;-77
2022/07/05 02:23:51;;;;;;;;;;;15.60;66.60;;;;;;5047586;28;19908;-76
2022/07/05 02:26:16;;;;;;;;;;;15.60;66.60;;;;;;5047801;28;19958;-79
2022/07/05 02:28:42;;;;;;;;;;;15.60;66.60;;;;;;5047620;28;19909;-77
2022/07/05 02:31:08;;;;;;;;;;;15.60;66.60;;;;;;5048703;28;20271;-79
2022/07/05 02:33:33;;;;;;;;;;;15.60;66.60;;;;;;5048873;28;19909;-78
2022/07/05 02:36:10;;;;;;;;;;;15.50;66.50;;;;;;5048642;28;19990;-77
2022/07/05 02:38:35;;;;;;;;;;;15.60;66.60;;;;;;5047457;28;20355;-76
2022/07/05 02:41:04;;;;;;;;;;;15.50;66.60;;;;;;5048923;28;19916;-78
2022/07/05 02:43:29;;;;;;;;;;;15.50;66.60;;;;;;5049322;28;19959;-78
2022/07/05 02:45:55;;;;;;;;;;;15.50;66.60;;;;;;5047763;28;20004;-78
2022/07/05 02:48:20;;;;;;;;;;;15.50;66.60;;;;;;5049627;28;19908;-77
2022/07/05 02:50:47;;;;;;;;;;;15.50;66.60;;;;;;5065908;28;20407;-78
2022/07/05 02:53:13;;;;;;;;;;;15.50;66.60;;;;;;5051673;28;19911;-78
2022/07/05 02:55:38;;;;;;;;;;;15.50;66.60;;;;;;5051986;28;20312;-78
2022/07/05 02:58:04;;;;;;;;;;;15.40;66.50;;;;;;5051686;28;19995;-78
2022/07/05 03:00:29;;;;;;;;;;;15.40;66.60;;;;;;5052935;28;19970;-77
2022/07/05 03:02:55;;;;;;;;;;;15.30;66.50;;;;;;5053145;28;19984;-77
2022/07/05 03:05:21;;;;;;;;;;;15.30;67.10;;;;;;5051830;28;19947;-78
2022/07/05 03:07:46;;;;;;;;;;;15.30;66.70;;;;;;5069029;28;19913;-77
2022/07/05 03:10:12;;;;;;;;;;;15.20;66.60;;;;;;5050882;28;19962;-78
2022/07/05 03:12:37;;;;;;;;;;;15.20;66.70;;;;;;5052266;28;19916;-78
2022/07/05 03:15:03;;;;;;;;;;;15.20;66.70;;;;;;5052392;28;20241;-76
2022/07/05 03:17:29;;;;;;;;;;;15.10;66.60;;;;;;5069136;28;19916;-76
2022/07/05 03:19:54;;;;;;;;;;;15.10;66.70;;;;;;5053820;28;19911;-77
2022/07/05 03:22:20;;;;;;;;;;;15.10;66.80;;;;;;5052418;28;19910;-77
2022/07/05 03:24:46;;;;;;;;;;;15.10;66.70;;;;;;5052178;28;19908;-76
2022/07/05 03:27:11;;;;;;;;;;;15.10;66.80;;;;;;5050599;28;20370;-77
2022/07/05 03:29:37;;;;;;;;;;;15.10;66.70;;;;;;5066897;28;19913;-78
2022/07/05 03:32:02;;;;;;;;;;;15.00;66.70;;;;;;5066784;28;19908;-77
2022/07/05 03:34:28;;;;;;;;;;;15.00;66.70;;;;;;5051140;28;19968;-78
2022/07/05 03:36:53;;;;;;;;;;;15.00;66.70;;;;;;5049637;28;19920;-78
2022/07/05 03:39:19;;;;;;;;;;;15.00;66.70;;;;;;5050909;28;19916;-77
2022/07/05 03:41:45;;;;;;;;;;;15.00;66.80;;;;;;5066261;28;20461;-77
2022/07/05 03:44:10;;;;;;;;;;;15.00;66.80;;;;;;5066392;28;20282;-79
2022/07/05 03:46:36;;;;;;;;;;;15.00;66.80;;;;;;5049744;28;20075;-76
2022/07/05 03:49:01;;;;;;;;;;;15.00;66.80;;;;;;5052060;28;19909;-77
2022/07/05 03:51:27;;;;;;;;;;;15.00;66.80;;;;;;5049793;28;19946;-78
2022/07/05 03:53:52;;;;;;;;;;;15.00;67.30;;;;;;5051158;28;19904;-78
2022/07/05 03:56:22;;;;;;;;;;;15.00;66.80;;;;;;5051838;28;19951;-78
2022/07/05 03:58:48;;;;;;;;;;;15.10;66.90;;;;;;5050370;28;19959;-79
2022/07/05 04:01:13;;;;;;;;;;;15.10;66.80;;;;;;5051511;28;19916;-78
2022/07/05 04:03:40;;;;;;;;;;;15.10;66.80;;;;;;5050902;28;19911;-78
2022/07/05 04:06:05;;;;;;;;;;;15.10;66.80;;;;;;5051906;28;19974;-78
2022/07/05 04:08:31;;;;;;;;;;;15.10;66.80;;;;;;5052201;28;19912;-77
2022/07/05 04:10:57;;;;;;;;;;;15.10;66.90;;;;;;5052442;28;20348;-78
2022/07/05 04:13:22;;;;;;;;;;;15.10;66.90;;;;;;5068122;28;19909;-77
2022/07/05 04:15:48;;;;;;;;;;;15.20;66.90;;;;;;5051642;28;19931;-78
2022/07/05 04:18:13;;;;;;;;;;;15.20;66.90;;;;;;5068254;28;20003;-77
2022/07/05 04:20:39;;;;;;;;;;;15.20;66.90;;;;;;5051608;28;20231;-76
2022/07/05 04:23:04;;;;;;;;;;;15.20;66.90;;;;;;5050768;28;19909;-76
2022/07/05 04:25:30;;;;;;;;;;;15.30;66.90;;;;;;5051696;28;19909;-77
2022/07/05 04:27:56;;;;;;;;;;;15.30;66.90;;;;;;5050298;28;19915;-78
2022/07/05 04:30:22;;;;;;;;;;;15.30;66.90;;;;;;5050188;28;20527;-79
2022/07/05 04:32:48;;;;;;;;;;;15.30;66.90;;;;;;5050343;28;19905;-79
2022/07/05 04:35:14;;;;;;;;;;;15.30;66.90;;;;;;5051101;28;19912;-76
2022/07/05 04:37:40;;;;;;;;;;;15.40;67.00;;;;;;5051466;28;19959;-76
2022/07/05 04:40:07;;;;;;;;;;;15.40;66.90;;;;;;5051894;28;19920;-79
2022/07/05 04:42:32;;;;;;;;;;;15.40;66.90;;;;;;5050124;28;19905;-78
2022/07/05 04:44:58;;;;;;;;;;;15.40;66.90;;;;;;5049226;28;19913;-77
2022/07/05 04:47:25;;;;;;;;;;;15.40;67.00;;;;;;5050389;28;19904;-77
2022/07/05 04:49:51;;;;;;;;;;;15.40;67.00;;;;;;5051989;28;19913;-77
2022/07/05 04:52:17;;;;;;;;;;;15.40;67.10;;;;;;5050003;28;20394;-77
2022/07/05 04:54:42;;;;;;;;;;;15.50;67.10;;;;;;5050804;28;19978;-78
2022/07/05 04:57:08;;;;;;;;;;;15.60;67.20;;;;;;5049536;28;19931;-78
2022/07/05 04:59:34;;;;;;;;;;;15.60;67.10;;;;;;5050329;28;19912;-77
2022/07/05 05:01:59;;;;;;;;;;;15.70;67.20;;;;;;5049152;28;19997;-78
2022/07/05 05:04:25;;;;;;;;;;;15.80;67.20;;;;;;5050544;28;19913;-78
2022/07/05 05:06:50;;;;;;;;;;;15.80;67.10;;;;;;5048003;28;19984;-77
2022/07/05 05:09:16;;;;;;;;;;;15.90;67.10;;;;;;5049887;28;19915;-77
2022/07/05 05:11:42;;;;;;;;;;;16.00;67.20;;;;;;5051384;28;20266;-76
2022/07/05 05:14:07;;;;;;;;;;;16.00;67.20;;;;;;5048639;28;19913;-77
2022/07/05 05:16:33;;;;;;;;;;;16.10;67.20;;;;;;5050949;28;20302;-77
2022/07/05 05:18:58;;;;;;;;;;;16.10;67.20;;;;;;5049678;28;19913;-76
2022/07/05 05:21:24;;;;;;;;;;;16.20;67.20;;;;;;5048802;28;20212;-78
2022/07/05 05:23:49;;;;;;;;;;;16.20;67.20;;;;;;5048611;28;19960;-77
2022/07/05 05:26:15;;;;;;;;;;;16.30;67.30;;;;;;5049394;28;19958;-78
2022/07/05 05:28:40;;;;;;;;;;;16.30;67.30;;;;;;5064649;28;19909;-77
2022/07/05 05:31:06;;;;;;;;;;;16.40;67.20;;;;;;5047932;28;19908;-78
2022/07/05 05:33:32;;;;;;;;;;;16.50;67.30;;;;;;5048485;28;19912;-80
2022/07/05 05:35:58;;;;;;;;;;;16.50;67.30;;;;;;5049193;28;20013;-78
2022/07/05 05:38:23;;;;;;;;;;;16.60;67.30;;;;;;5049250;28;20338;-79
2022/07/05 05:40:49;;;;;;;;;;;16.60;67.30;;;;;;5047986;28;19913;-78
2022/07/05 05:43:14;;;;;;;;;;;16.60;67.30;;;;;;5050128;28;19905;-77
2022/07/05 05:45:40;;;;;;;;;;;16.70;67.40;;;;;;5049642;28;19991;-78
2022/07/05 05:48:06;;;;;;;;;;;16.70;67.30;;;;;;5048518;28;19912;-78
2022/07/05 05:50:36;;;;;;;;;;;16.70;67.40;;;;;;5048559;28;19911;-77
2022/07/05 05:53:02;;;;;;;;;;;16.80;67.40;;;;;;5049626;28;19909;-78
2022/07/05 05:55:28;;;;;;;;;;;16.80;67.40;;;;;;5047833;28;19999;-79
2022/07/05 05:57:54;;;;;;;;;;;16.80;67.40;;;;;;5065035;28;19912;-78
2022/07/05 06:00:21;;;;;;;;;;;16.80;67.40;;;;;;5048720;28;19905;-78
2022/07/05 06:02:47;;;;;;;;;;;16.90;67.40;;;;;;5049420;28;19908;-77
2022/07/05 06:05:13;;;;;;;;;;;16.90;67.50;;;;;;5049607;28;19939;-77
2022/07/05 06:07:52;;;;;;;;;;;16.90;67.40;;;;;;5048729;28;19904;-77
2022/07/05 06:10:19;;;;;;;;;;;16.90;67.40;;;;;;5048776;28;20406;-76
2022/07/05 06:12:45;;;;;;;;;;;17.00;67.40;;;;;;5049459;28;20270;-77
2022/07/05 06:15:10;;;;;;;;;;;17.00;67.90;;;;;;5050538;28;19924;-77
2022/07/05 06:17:36;;;;;;;;;;;17.00;67.40;;;;;;5050127;28;19995;-78
2022/07/05 06:20:06;;;;;;;;;;;17.10;67.40;;;;;;5049472;28;19920;-76
2022/07/05 06:22:32;;;;;;;;;;;17.10;67.40;;;;;;5048061;28;20003;-78
2022/07/05 06:24:57;;;;;;;;;;;17.10;67.50;;;;;;5047755;28;20358;-79
2022/07/05 06:27:23;;;;;;;;;;;17.10;67.50;;;;;;5051527;28;20207;-79
2022/07/05 06:29:49;;;;;;;;;;;17.10;67.50;;;;;;5053174;28;19955;-80
2022/07/05 06:32:14;;;;;;;;;;;17.20;67.50;;;;;;5053011;28;19909;-77
2022/07/05 06:34:40;;;;;;;;;;;17.20;67.50;;;;;;5053141;28;19967;-76
2022/07/05 06:37:05;;;;;;;;;;;17.20;67.50;;;;;;5051148;28;20455;-75
2022/07/05 06:39:32;;;;;;;;;;;17.20;67.50;;;;;;5051229;28;19920;-79
2022/07/05 06:41:58;;;;;;;;;;;17.20;67.50;;;;;;5052899;28;19908;-77
2022/07/05 06:44:23;;;;;;;;;;;17.20;67.50;;;;;;5052901;28;19917;-78
2022/07/05 06:46:49;;;;;;;;;;;17.20;67.60;;;;;;5068100;28;19981;-78
2022/07/05 06:49:15;;;;;;;;;;;17.10;67.60;;;;;;5053323;28;19923;-77
2022/07/05 06:51:40;;;;;;;;;;;17.10;67.60;;;;;;5052110;28;19905;-78
2022/07/05 06:54:06;;;;;;;;;;;17.10;67.60;;;;;;5052615;28;19916;-77
2022/07/05 06:56:31;;;;;;;;;;;17.20;67.70;;;;;;5050539;28;20286;-77
2022/07/05 06:58:57;;;;;;;;;;;17.20;67.70;;;;;;5051491;28;19918;-77
2022/07/05 07:01:22;;;;;;;;;;;17.20;67.70;;;;;;5050683;28;19935;-78
2022/07/05 07:03:48;;;;;;;;;;;17.30;67.70;;;;;;5068210;28;19909;-77
2022/07/05 07:06:14;;;;;;;;;;;17.40;67.70;;;;;;5052123;28;20003;-79
2022/07/05 07:11:23;;;;;;;;;;;17.60;67.70;;;;;;5051983;28;19971;-79
2022/07/05 07:13:49;;;;;;;;;;;17.70;67.70;;;;;;5050131;28;20421;-78
2022/07/05 07:16:15;;;;;;;;;;;17.80;67.70;;;;;;5050911;28;20328;-78
2022/07/05 07:18:40;;;;;;;;;;;17.90;67.70;;;;;;5068030;28;19908;-77
2022/07/05 07:21:06;;;;;;;;;;;18.20;67.70;;;;;;5052516;28;19919;-78
2022/07/05 07:23:31;;;;;;;;;;;18.40;67.70;;;;;;5051075;28;19948;-76
2022/07/05 07:25:57;;;;;;;;;;;18.70;67.50;;;;;;5051004;28;19912;-77
2022/07/05 07:28:24;;;;;;;;;;;18.90;67.40;;;;;;5052732;28;20359;-77
2022/07/05 07:30:49;;;;;;;;;;;19.00;67.20;;;;;;5067846;28;19912;-77
2022/07/05 07:33:15;;;;;;;;;;;19.10;67.20;;;;;;5052772;28;20235;-77
2022/07/05 07:35:40;;;;;;;;;;;19.00;67.00;;;;;;5053611;28;19959;-73
2022/07/05 07:38:06;;;;;;;;;;;18.90;67.10;;;;;;5066499;28;19928;-78
2022/07/05 07:40:32;;;;;;;;;;;18.90;67.30;;;;;;5051646;28;20259;-77
2022/07/05 07:42:58;;;;;;;;;;;18.90;67.30;;;;;;5053378;28;20276;-75
2022/07/05 07:45:26;;;;;;;;;;;18.90;67.40;;;;;;5052152;28;19916;-76
2022/07/05 07:47:52;;;;;;;;;;;18.90;67.40;;;;;;5050789;28;19909;-77
2022/07/05 07:50:17;;;;;;;;;;;19.00;67.50;;;;;;5051535;28;20423;-78
2022/07/05 07:52:44;;;;;;;;;;;19.00;67.40;;;;;;5052429;28;19974;-77
2022/07/05 07:55:10;;;;;;;;;;;19.00;67.30;;;;;;5053784;28;19916;-76
2022/07/05 07:57:36;;;;;;;;;;;19.00;67.40;;;;;;5049851;28;19912;-77
2022/07/05 08:00:02;;;;;;;;;;;19.00;67.50;;;;;;5066495;28;19951;-77
2022/07/05 08:02:28;;;;;;;;;;;19.00;67.50;;;;;;5050991;28;19909;-78
2022/07/05 08:04:53;;;;;;;;;;;19.10;67.70;;;;;;5049225;28;19912;-77
2022/07/05 08:07:19;;;;;;;;;;;19.30;67.70;;;;;;5051515;28;20009;-80
2022/07/05 08:09:45;;;;;;;;;;;19.50;67.70;;;;;;5066236;28;20263;-77
2022/07/05 08:12:11;;;;;;;;;;;19.60;67.60;;;;;;5049203;28;19908;-79
2022/07/05 08:14:37;;;;;;;;;;;19.80;67.60;;;;;;5051165;28;19912;-78
2022/07/05 08:17:02;;;;;;;;;;;19.90;67.50;;;;;;5066899;28;19947;-77
2022/07/05 08:22:12;;;;;;;;;;;20.00;67.40;;;;;;5051182;28;20261;-78
2022/07/05 08:24:41;;;;;;;;;;;20.00;67.20;;;;;;5050813;28;20011;-76
2022/07/05 08:27:07;;;;;;;;;;;19.90;67.30;;;;;;5048780;28;19913;-76
2022/07/05 08:29:33;;;;;;;;;;;19.90;67.40;;;;;;5047111;28;20268;-77
2022/07/05 08:31:58;;;;;;;;;;;19.80;67.40;;;;;;5048745;28;20011;-77
2022/07/05 08:34:24;;;;;;;;;;;19.70;67.30;;;;;;5047024;28;20011;-77
2022/07/05 08:36:49;;;;;;;;;;;19.60;67.50;;;;;;5048798;28;20346;-79
2022/07/05 08:39:15;;;;;;;;;;;19.60;67.60;;;;;;5049652;28;19927;-79
2022/07/05 08:41:42;;;;;;;;;;;19.70;67.60;;;;;;5066315;28;20371;-77
2022/07/05 08:44:08;;;;;;;;;;;19.70;67.70;;;;;;5049593;28;19954;-77
2022/07/05 08:46:34;;;;;;;;;;;19.90;67.90;;;;;;5048828;28;20003;-76
2022/07/05 08:49:01;;;;;;;;;;;20.10;67.90;;;;;;5049932;28;19915;-77
2022/07/05 08:51:27;;;;;;;;;;;20.40;67.80;;;;;;5051038;28;19913;-78
2022/07/05 08:53:53;;;;;;;;;;;20.60;67.90;;;;;;5048722;28;19909;-76
2022/07/05 08:56:19;;;;;;;;;;;21.20;68.10;;;;;;5049082;28;19919;-79
2022/07/05 08:58:45;;;;;;;;;;;21.60;67.60;;;;;;5065702;28;20271;-76
2022/07/05 09:01:11;;;;;;;;;;;21.80;67.40;;;;;;5049015;28;19912;-77
2022/07/05 09:03:45;;;;;;;;;;;22.40;68.20;;;;;;5047441;28;20389;-78
2022/07/05 09:06:14;;;;;;;;;;;23.70;68.50;;;;;;5051300;28;19905;-78
2022/07/05 09:08:40;;;;;;;;;;;24.60;67.40;;;;;;5049922;28;19909;-80
2022/07/05 09:11:13;;;;;;;;;;;24.70;66.40;;;;;;5048267;28;20602;-77
2022/07/05 09:13:39;;;;;;;;;;;24.40;66.20;;;;;;5047646;28;19905;-77
2022/07/05 09:16:05;;;;;;;;;;;24.00;66.30;;;;;;5048952;28;19948;-77
2022/07/05 09:18:49;;;;;;;;;;;23.70;66.50;;;;;;5064188;28;19944;-78
2022/07/05 09:21:19;;;;;;;;;;;23.30;66.70;;;;;;5047159;28;19982;-78
2022/07/05 09:23:58;;;;;;;;;;;23.10;67.00;;;;;;5047357;28;19948;-78
2022/07/05 09:26:36;;;;;;;;;;;23.00;67.40;;;;;;5047232;28;20266;-78
2022/07/05 09:29:03;;;;;;;;;;;22.90;67.50;;;;;;5049064;28;19908;-77
2022/07/05 09:31:30;;;;;;;;;;;23.00;67.80;;;;;;5047295;28;20062;-77
2022/07/05 09:34:09;;;;;;;;;;;23.30;67.70;;;;;;5049425;28;19947;-77
2022/07/05 09:36:54;;;;;;;;;;;23.30;67.40;;;;;;5048769;28;20247;-77
2022/07/05 09:39:29;;;;;;;;;;;23.10;67.20;;;;;;5048804;28;19939;-78
2022/07/05 09:42:13;;;;;;;;;;;22.80;67.60;;;;;;5047494;28;20385;-79
2022/07/05 09:44:42;;;;;;;;;;;22.50;67.30;;;;;;5045443;28;19905;-78
2022/07/05 09:47:10;;;;;;;;;;;22.20;67.40;;;;;;5049297;28;19912;-80
2022/07/05 09:49:36;;;;;;;;;;;22.10;67.70;;;;;;5048869;28;19909;-79
2022/07/05 09:52:02;;;;;;;;;;;21.90;67.80;;;;;;5049197;28;20481;-79
2022/07/05 09:54:27;;;;;;;;;;;21.80;67.80;;;;;;5031278;28;20053;-79
2022/07/05 09:56:53;;;;;;;;;;;21.80;68.30;;;;;;5030701;28;19913;-77
2022/07/05 09:59:20;;;;;;;;;;;21.70;67.80;;;;;;5048540;28;20242;-81
2022/07/05 10:01:46;;;;;;;;;;;21.50;67.70;;;;;;5047577;28;19916;-79
2022/07/05 10:04:12;;;;;;;;;;;21.50;67.90;;;;;;5047152;28;20283;-78
2022/07/05 10:06:38;;;;;;;;;;;21.40;67.80;;;;;;5048968;28;19912;-78
2022/07/05 10:09:04;;;;;;;;;;;21.40;67.70;;;;;;5048505;28;19911;-79
2022/07/05 10:11:30;;;;;;;;;;;21.30;67.70;;;;;;5048540;28;20362;-78
2022/07/05 10:13:58;;;;;;;;;;;21.20;67.80;;;;;;5048666;28;20438;-77
2022/07/05 10:16:23;;;;;;;;;;;21.00;67.70;;;;;;5049724;28;19909;-80
2022/07/05 10:18:53;;;;;;;;;;;20.90;67.70;;;;;;5049188;28;19906;-81
2022/07/05 10:21:19;;;;;;;;;;;20.80;67.90;;;;;;5049008;28;19958;-80
2022/07/05 10:23:46;;;;;;;;;;;20.80;68.10;;;;;;5049295;28;20256;-78
2022/07/05 10:26:12;;;;;;;;;;;20.80;68.10;;;;;;5064070;28;20004;-79
2022/07/05 10:28:39;;;;;;;;;;;20.90;68.20;;;;;;5049042;28;20279;-79
2022/07/05 10:31:05;;;;;;;;;;;21.00;68.10;;;;;;5048634;28;19921;-82
2022/07/05 10:33:32;;;;;;;;;;;21.10;68.10;;;;;;5063837;28;19909;-81
2022/07/05 10:35:58;;;;;;;;;;;21.20;68.10;;;;;;5048656;28;19963;-80
2022/07/05 10:38:24;;;;;;;;;;;21.20;67.90;;;;;;5048180;28;19948;-79
2022/07/05 10:40:55;;;;;;;;;;;21.20;67.90;;;;;;5048799;28;20417;-78
2022/07/05 10:43:24;;;;;;;;;;;21.20;67.80;;;;;;5049202;28;20011;-80
2022/07/05 10:45:51;;;;;;;;;;;21.20;67.90;;;;;;5049286;28;19954;-79
2022/07/05 10:48:17;;;;;;;;;;;21.20;67.90;;;;;;5063518;28;19920;-80
2022/07/05 10:50:43;;;;;;;;;;;21.20;67.90;;;;;;5048566;28;20382;-77
2022/07/05 10:53:08;;;;;;;;;;;21.30;67.90;;;;;;5048347;28;20015;-78
2022/07/05 10:55:46;;;;;;;;;;;21.30;67.90;;;;;;5048184;28;19909;-78
2022/07/05 10:58:24;;;;;;;;;;;21.40;67.90;;;;;;5048352;28;19912;-77
2022/07/05 11:01:08;;;;;;;;;;;21.50;67.90;;;;;;5047459;28;19905;-77
2022/07/05 11:03:37;;;;;;;;;;;21.70;67.90;;;;;;5048758;28;20350;-81
2022/07/05 11:06:04;;;;;;;;;;;21.80;67.70;;;;;;5064223;28;20389;-79
2022/07/05 11:08:32;;;;;;;;;;;21.80;67.70;;;;;;5048613;28;19904;-78
2022/07/05 11:11:13;;;;;;;;;;;21.80;67.60;;;;;;5048783;28;19911;-78
2022/07/05 11:13:40;;;;;;;;;;;21.80;67.60;;;;;;5052467;28;19944;-77
2022/07/05 11:16:24;;;;;;;;;;;22.00;67.80;;;;;;5050966;28;19913;-78
2022/07/05 11:18:53;;;;;;;;;;;22.10;67.70;;;;;;5052320;28;19905;-78
2022/07/05 11:21:22;;;;;;;;;;;22.10;67.70;;;;;;5051725;28;19908;-78
2022/07/05 11:23:48;;;;;;;;;;;22.10;67.60;;;;;;5050343;28;20382;-78
2022/07/05 11:26:16;;;;;;;;;;;21.90;67.50;;;;;;5050736;28;19944;-78
2022/07/05 11:28:43;;;;;;;;;;;21.80;67.50;;;;;;5049513;28;19912;-78
2022/07/05 11:31:09;;;;;;;;;;;21.60;67.60;;;;;;5066750;28;19909;-78
2022/07/05 11:33:38;;;;;;;;;;;21.50;67.80;;;;;;5050735;28;19909;-79
2022/07/05 11:36:19;;;;;;;;;;;21.60;68.60;;;;;;5051757;28;19958;-80
2022/07/05 11:39:03;;;;;;;;;;;21.70;68.00;;;;;;5051358;28;19916;-79
2022/07/05 11:41:30;;;;;;;;;;;21.70;68.00;;;;;;5051534;28;19905;-77
2022/07/05 11:43:57;;;;;;;;;;;21.80;67.90;;;;;;5051916;28;19943;-82
2022/07/05 11:46:23;;;;;;;;;;;21.80;67.80;;;;;;5033871;28;19927;-78
2022/07/05 11:48:49;;;;;;;;;;;21.80;67.90;;;;;;5034036;28;20007;-78
2022/07/05 11:51:15;;;;;;;;;;;21.90;67.90;;;;;;5050263;28;19917;-78
2022/07/05 11:53:42;;;;;;;;;;;22.00;68.40;;;;;;5051783;28;19916;-80
2022/07/05 11:56:07;;;;;;;;;;;22.20;68.00;;;;;;5051482;28;20019;-78
2022/07/05 11:58:33;;;;;;;;;;;22.30;67.90;;;;;;5051432;28;19913;-79
2022/07/05 12:00:59;;;;;;;;;;;22.50;68.00;;;;;;5051057;28;19912;-81
2022/07/05 12:03:25;;;;;;;;;;;22.90;68.50;;;;;;5050829;28;19905;-79
2022/07/05 12:05:52;;;;;;;;;;;23.20;67.90;;;;;;5049555;28;19936;-76
2022/07/05 12:08:23;;;;;;;;;;;23.50;67.70;;;;;;5050683;28;19958;-77
2022/07/05 12:13:46;;;;;;;;;;;23.70;67.50;;;;;;5050780;28;20277;-78
2022/07/05 12:16:13;;;;;;;;;;;23.80;67.70;;;;;;5049090;28;20278;-79
2022/07/05 12:18:51;;;;;;;;;;;24.10;67.80;;;;;;5049284;28;19912;-79
2022/07/05 12:21:20;;;;;;;;;;;24.40;67.70;;;;;;5049699;28;19931;-80
2022/07/05 12:23:46;;;;;;;;;;;24.80;67.80;;;;;;5048299;28;19905;-80
2022/07/05 12:26:15;;;;;;;;;;;25.00;67.60;;;;;;5065625;28;19954;-78
2022/07/05 12:28:44;;;;;;;;;;;25.20;67.50;;;;;;5048492;28;19912;-76
2022/07/05 12:31:17;;;;;;;;;;;25.30;67.60;;;;;;5049952;28;19973;-79
2022/07/05 12:33:42;;;;;;;;;;;25.40;67.70;;;;;;5049591;28;19992;-79
2022/07/05 12:36:15;;;;;;;;;;;25.40;67.70;;;;;;5031245;28;19920;-78
2022/07/05 12:38:41;;;;;;;;;;;25.50;67.60;;;;;;5048666;28;20478;-79
2022/07/05 12:41:07;;;;;;;;;;;25.50;67.60;;;;;;5049599;28;19987;-76
2022/07/05 12:43:33;;;;;;;;;;;25.50;67.50;;;;;;5049094;28;19994;-78
2022/07/05 12:46:00;;;;;;;;;;;25.30;67.30;;;;;;5047923;28;19971;-77
2022/07/05 12:48:33;;;;;;;;;;;25.10;67.50;;;;;;5048513;28;19911;-79
2022/07/05 12:50:58;;;;;;;;;;;25.00;67.80;;;;;;5050233;28;19911;-73
2022/07/05 12:58:55;;;;;;;;;;;25.00;67.60;;;;;;5050496;28;19957;-79
2022/07/05 13:01:22;;;;;;;;;;;24.80;67.70;;;;;;5048233;28;19904;-75
2022/07/05 13:04:00;;;;;;;;;;;24.60;67.80;;;;;;5048306;28;19904;-77
2022/07/05 13:06:41;;;;;;;;;;;24.80;68.40;;;;;;5048300;28;19905;-77
2022/07/05 13:09:08;;;;;;;;;;;25.30;68.60;;;;;;5050016;28;19963;-76
2022/07/05 13:11:33;;;;;;;;;;;25.60;68.20;;;;;;5049238;28;19904;-77
2022/07/05 13:13:59;;;;;;;;;;;25.80;67.90;;;;;;5049329;28;19924;-80
2022/07/05 13:16:24;;;;;;;;;;;25.70;67.50;;;;;;5048610;28;19958;-77
2022/07/05 13:18:50;;;;;;;;;;;25.60;67.60;;;;;;5050174;28;19962;-80
2022/07/05 13:21:16;;;;;;;;;;;25.50;67.60;;;;;;5050170;28;19912;-79
2022/07/05 13:23:41;;;;;;;;;;;25.40;67.70;;;;;;5049037;28;19915;-79
2022/07/05 13:26:07;;;;;;;;;;;25.20;67.70;;;;;;5049691;28;19908;-80
2022/07/05 13:28:32;;;;;;;;;;;25.10;67.70;;;;;;5048356;28;20028;-78
2022/07/05 13:30:58;;;;;;;;;;;25.00;67.70;;;;;;5047533;28;19913;-81
2022/07/05 13:33:24;;;;;;;;;;;24.80;67.80;;;;;;5065159;28;20335;-77
2022/07/05 13:35:49;;;;;;;;;;;24.80;68.00;;;;;;5048319;28;20575;-77
2022/07/05 13:38:15;;;;;;;;;;;24.80;68.10;;;;;;5049212;28;19948;-79
2022/07/05 13:40:40;;;;;;;;;;;25.00;68.10;;;;;;5048521;28;19920;-78
2022/07/05 13:43:06;;;;;;;;;;;25.10;68.10;;;;;;5048266;28;19923;-77
2022/07/05 13:45:32;;;;;;;;;;;25.20;67.90;;;;;;5046840;28;20367;-78
2022/07/05 13:47:57;;;;;;;;;;;25.10;67.70;;;;;;5048528;28;20275;-78
2022/07/05 13:50:32;;;;;;;;;;;25.00;67.60;;;;;;5047539;28;20287;-78
2022/07/05 13:52:58;;;;;;;;;;;24.80;67.50;;;;;;5048048;28;19915;-76
2022/07/05 13:55:24;;;;;;;;;;;24.50;67.60;;;;;;5046449;28;19913;-76
2022/07/05 13:57:49;;;;;;;;;;;24.20;67.80;;;;;;5048287;28;19912;-79
2022/07/05 14:00:15;;;;;;;;;;;24.20;67.90;;;;;;5048596;28;20007;-78
2022/07/05 14:02:41;;;;;;;;;;;24.20;67.90;;;;;;5049331;28;20390;-80
2022/07/05 14:05:06;;;;;;;;;;;24.10;67.90;;;;;;5049072;28;19908;-77
2022/07/05 14:07:32;;;;;;;;;;;24.10;68.00;;;;;;5048647;28;19915;-79
2022/07/05 14:09:58;;;;;;;;;;;24.20;68.10;;;;;;5047496;28;19914;-78
2022/07/05 14:12:23;;;;;;;;;;;24.50;68.20;;;;;;5063656;28;19909;-77
2022/07/05 14:14:49;;;;;;;;;;;24.70;68.10;;;;;;5048351;28;19913;-78
2022/07/05 14:17:14;;;;;;;;;;;24.90;67.90;;;;;;5049182;28;20355;-78
2022/07/05 14:19:40;;;;;;;;;;;25.00;67.70;;;;;;5047029;28;19920;-77
2022/07/05 14:22:06;;;;;;;;;;;25.00;67.60;;;;;;5047399;28;19919;-77
2022/07/05 14:24:31;;;;;;;;;;;24.90;67.70;;;;;;5030419;28;20360;-79
2022/07/05 14:26:57;;;;;;;;;;;25.00;67.90;;;;;;5048115;28;20410;-78
2022/07/05 14:29:22;;;;;;;;;;;25.00;67.90;;;;;;5046857;28;19909;-77
2022/07/05 14:31:48;;;;;;;;;;;24.90;67.80;;;;;;5064236;28;19908;-78